CET,Max TemperatureF,Mean TemperatureF,Min TemperatureF,Max Dew PointF,MeanDew PointF,Min DewpointF,Max Humidity, Mean Humidity, Min Humidity, Max Sea Level PressureIn, Mean Sea Level PressureIn, Min Sea Level PressureIn, Max VisibilityMiles, Mean VisibilityMiles, Min VisibilityMiles, Max Wind SpeedMPH, Mean Wind SpeedMPH, Max Gust SpeedMPH,PrecipitationIn, CloudCover, Events, WindDirDegrees
2012-10-1,67,54,42,52,47,41,100,77,45,30.08,29.99,29.95,19,6,4,14,8,,0.00,5,Rain,192
2012-10-2,61,58,54,55,54,50,100,87,66,29.98,29.94,29.89,19,6,4,13,9,,0.01,7,Rain,195
2012-10-3,62,56,51,55,53,50,100,90,76,29.89,29.79,29.77,19,6,2,18,12,30,0.55,7,Rain-Thunderstorm,204
2012-10-4,59,54,48,52,49,43,100,90,49,29.96,29.75,29.65,17,6,2,16,6,28,0.16,6,Rain,230
2012-10-5,63,56,48,59,53,45,100,90,77,29.92,29.79,29.65,19,6,2,26,11,43,0.04,7,Rain,225
2012-10-6,59,50,41,59,50,41,100,94,72,30.00,29.85,29.71,11,4,0,17,6,31,0.20,6,Fog-Rain,240
2012-10-7,59,48,36,50,41,36,100,92,41,30.25,30.07,29.98,18,4,0,10,2,,0.00,4,Fog,279
2012-10-8,58,46,35,50,40,36,100,90,48,30.25,30.10,29.86,19,6,1,8,3,,0.02,6,Rain,139
2012-10-9,58,48,37,50,44,37,100,91,46,30.05,29.93,29.86,19,5,0,9,3,,0.00,6,Fog-Rain,324
2012-10-10,57,46,34,46,39,34,100,85,43,30.04,30.00,29.98,19,6,4,9,2,,0.00,5,,23
2012-10-11,58,48,37,50,42,37,100,77,47,29.98,29.82,29.68,16,7,3,10,5,,0.16,5,Rain,110
2012-10-12,60,53,46,57,50,41,100,87,67,29.86,29.67,29.56,13,6,2,18,9,30,0.00,7,Rain,215
2012-10-13,54,48,43,50,47,41,100,93,85,29.87,29.70,29.59,19,6,4,17,10,,0.28,7,Rain,188
2012-10-14,54,48,41,45,43,40,100,90,65,29.60,29.53,29.44,19,7,4,16,11,,0.00,6,Rain,206
2012-10-15,57,48,40,46,43,39,100,86,48,29.74,29.56,29.44,18,5,2,17,7,,0.00,6,Rain,223
2012-10-16,58,52,47,52,47,43,100,85,66,29.80,29.67,29.59,16,6,2,18,12,31,0.08,6,Rain,196
2012-10-17,61,52,44,55,50,44,100,89,73,29.81,29.70,29.65,9,6,3,15,9,22,0.12,7,Rain,163
2012-10-18,68,62,56,56,55,54,94,76,55,29.79,29.72,29.65,19,6,6,14,8,,0.01,7,Rain,165
2012-10-19,72,64,55,57,54,52,100,75,41,29.89,29.82,29.77,19,7,6,10,5,,0.00,7,Rain,154
2012-10-20,64,60,55,59,57,54,94,88,70,30.07,30.02,29.86,19,6,3,8,5,,0.00,7,Rain,331
2012-10-21,64,59,54,59,56,54,100,94,78,30.05,30.01,29.98,5,3,1,12,7,,0.00,7,,39
2012-10-22,71,60,50,59,54,50,100,92,60,30.19,30.09,30.04,11,3,0,7,3,,0.00,5,Fog,45
2012-10-23,66,58,50,57,53,50,100,89,61,30.24,30.19,30.18,7,3,0,9,4,,0.00,6,Fog,65
2012-10-24,59,54,49,54,51,48,100,92,73,30.20,30.12,30.06,3,2,1,13,6,,0.00,6,,64
2012-10-25,53,50,48,52,50,44,100,95,70,30.06,30.01,29.95,6,3,0,13,6,,0.00,8,Fog-Rain,25
2012-10-26,45,41,37,43,36,30,87,73,52,30.01,29.86,29.68,19,7,6,16,9,,0.00,8,Rain,38
2012-10-27,45,36,28,37,31,27,93,83,55,29.99,29.78,29.65,19,6,6,20,8,28,0.02,4,Rain,2
2012-10-28,49,36,24,37,32,25,100,82,44,30.04,29.99,29.95,12,6,2,10,5,,0.00,7,Fog,213
2012-10-29,47,43,39,45,40,28,100,84,49,29.97,29.82,29.68,14,6,3,18,12,,0.01,8,Rain,202
2012-10-30,50,44,39,46,44,39,100,94,74,29.68,29.63,29.59,9,4,0,16,8,,0.16,6,Fog-Rain,233
2012-10-31,56,47,38,46,41,37,100,85,41,29.60,29.46,29.24,18,4,1,15,8,,0.00,7,Fog-Thunderstorm,172